Time;durP1;ratioP1;P1;durP2;ratioP2;P2;SDS_P1;SDS_P2;PMS_P1;PMS_P2;Temp;Humidity;BMP_temperature;BMP_pressure;BME280_temperature;BME280_humidity;BME280_pressure;Samples;Min_cycle;Max_cycle;Signal;HPM_P1;HPM_P2
2022/11/10 00:00:34;;;;;;;7.75;3.08;;;;;;;12.21;74.92;101033.66;4152559;28;20084;-62
2022/11/10 00:03:02;;;;;;;10.63;2.45;;;;;;;12.18;75.34;101041.41;4155320;28;20051;-61
2022/11/10 00:05:23;;;;;;;9.13;2.72;;;;;;;12.11;75.91;101036.94;4152048;28;20129;-61
2022/11/10 00:07:44;;;;;;;8.68;2.90;;;;;;;12.11;75.60;101047.38;4139115;28;20483;-61
2022/11/10 00:10:08;;;;;;;7.47;2.35;;;;;;;12.03;76.23;101041.13;4151050;28;20570;-60
2022/11/10 00:12:29;;;;;;;11.13;3.17;;;;;;;11.98;76.57;101043.66;4144920;28;20108;-61
2022/11/10 00:17:30;;;;;;;10.10;3.00;;;;;;;11.88;76.84;101047.81;4147012;28;20041;-61
2022/11/10 00:19:53;;;;;;;7.72;2.63;;;;;;;11.85;76.47;101042.53;4148470;28;20044;-61
2022/11/10 00:22:14;;;;;;;12.32;2.58;;;;;;;11.83;76.33;101039.03;4146792;28;20108;-61
2022/11/10 00:24:36;;;;;;;6.03;2.00;;;;;;;11.82;76.06;101044.22;4146506;28;20121;-61
2022/11/10 00:26:57;;;;;;;6.45;1.80;;;;;;;11.77;75.99;101051.94;4131921;28;20054;-61
2022/11/10 00:29:19;;;;;;;8.77;2.85;;;;;;;11.77;76.15;101051.06;4155443;28;20427;-61
2022/11/10 00:31:41;;;;;;;8.95;2.60;;;;;;;11.75;75.93;101051.03;4161579;28;20116;-61
2022/11/10 00:34:02;;;;;;;9.90;2.28;;;;;;;11.69;75.86;101053.53;4140120;28;20038;-61
2022/11/10 00:36:25;;;;;;;6.90;2.33;;;;;;;11.58;75.98;101058.53;4146293;28;20142;-61
2022/11/10 00:38:49;;;;;;;7.28;2.10;;;;;;;11.54;75.67;101059.31;4137802;28;20041;-61
2022/11/10 00:41:11;;;;;;;9.85;2.72;;;;;;;11.47;75.84;101053.09;4139996;28;20049;-61
2022/11/10 00:43:33;;;;;;;8.40;2.30;;;;;;;11.41;76.14;101062.53;4141682;28;20066;-61
2022/11/10 00:45:55;;;;;;;8.07;2.30;;;;;;;11.40;76.43;101065.97;4148169;28;20448;-61
2022/11/10 00:48:17;;;;;;;7.93;2.35;;;;;;;11.40;76.92;101076.38;4150381;28;20026;-61
2022/11/10 00:50:38;;;;;;;4.85;2.40;;;;;;;11.35;77.01;101076.28;4149842;28;20553;-61
2022/11/10 00:53:01;;;;;;;7.32;2.10;;;;;;;11.34;76.42;101078.00;4148202;28;20096;-61
2022/11/10 00:55:23;;;;;;;10.23;2.90;;;;;;;11.34;76.32;101077.13;4157554;28;20041;-61
2022/11/10 00:57:44;;;;;;;6.85;2.22;;;;;;;11.30;77.07;101083.09;4144878;28;20059;-61
2022/11/10 01:00:07;;;;;;;6.70;1.92;;;;;;;11.26;77.53;101083.91;4149827;28;20037;-61
2022/11/10 01:02:28;;;;;;;7.20;2.17;;;;;;;11.24;76.92;101090.78;4145921;28;20121;-61
2022/11/10 01:04:50;;;;;;;7.35;2.60;;;;;;;11.23;77.11;101099.44;4154908;28;20045;-61
2022/11/10 01:07:11;;;;;;;7.28;2.33;;;;;;;11.22;77.07;101103.78;4148124;28;20045;-62
2022/11/10 01:09:34;;;;;;;11.65;2.70;;;;;;;11.14;76.65;101111.41;4157194;28;20041;-61
2022/11/10 01:11:55;;;;;;;8.20;2.50;;;;;;;11.12;77.53;101118.28;4154130;28;20125;-61
2022/11/10 01:14:17;;;;;;;7.95;2.28;;;;;;;11.14;76.81;101119.22;4174118;28;20520;-61
2022/11/10 01:16:38;;;;;;;7.65;2.53;;;;;;;11.20;77.07;101131.50;4158151;28;20118;-61
2022/11/10 01:19:02;;;;;;;7.40;3.05;;;;;;;11.18;77.34;101133.16;4139450;28;20039;-61
2022/11/10 01:21:24;;;;;;;10.27;2.80;;;;;;;11.15;76.72;101133.97;4173621;28;20045;-61
2022/11/10 01:23:46;;;;;;;9.90;3.60;;;;;;;11.17;77.25;101137.50;4158995;28;20037;-61
2022/11/10 01:26:09;;;;;;;7.38;2.17;;;;;;;11.18;76.90;101146.19;4165694;28;20053;-62
2022/11/10 01:28:31;;;;;;;6.75;2.33;;;;;;;11.14;76.89;101153.06;4171609;28;20045;-61
2022/11/10 01:30:57;;;;;;;6.45;2.78;;;;;;;11.13;76.75;101161.69;4153971;28;20085;-61
2022/11/10 01:33:18;;;;;;;4.95;2.65;;;;;;;11.10;76.70;101161.63;4155886;28;20526;-61
2022/11/10 01:35:40;;;;;;;9.82;2.80;;;;;;;11.09;77.44;101159.00;4153110;28;20492;-62
2022/11/10 01:38:02;;;;;;;5.95;2.63;;;;;;;11.06;76.97;101161.53;4147305;28;20069;-62
2022/11/10 01:40:23;;;;;;;9.43;2.80;;;;;;;11.03;76.94;101164.94;4159410;28;20487;-61
2022/11/10 01:42:50;;;;;;;7.45;2.42;;;;;;;10.98;76.95;101166.53;4161913;28;20034;-62
2022/11/10 01:45:41;;;;;;;9.07;3.33;;;;;;;10.94;77.72;101160.38;4166011;28;20486;-61
2022/11/10 01:48:07;;;;;;;8.38;2.47;;;;;;;10.83;77.35;101162.75;4166772;28;20076;-61
2022/11/10 01:50:33;;;;;;;9.55;2.92;;;;;;;10.82;77.24;101162.72;4147298;28;20046;-61
2022/11/10 01:52:59;;;;;;;5.93;2.53;;;;;;;10.76;78.05;101160.84;4144742;28;20040;-61
2022/11/10 01:55:22;;;;;;;4.35;2.22;;;;;;;10.63;78.97;101169.13;4153378;28;20504;-61
2022/11/10 01:57:47;;;;;;;6.00;2.90;;;;;;;10.63;78.50;101170.03;4147460;28;20033;-61
2022/11/10 02:00:10;;;;;;;10.55;4.53;;;;;;;10.68;78.75;101174.47;4151153;28;20518;-61
2022/11/10 02:02:37;;;;;;;7.70;2.78;;;;;;;10.72;78.61;101172.00;4156844;28;20099;-61
2022/11/10 02:05:01;;;;;;;10.48;2.90;;;;;;;10.78;77.67;101172.13;4151872;28;20509;-61
2022/11/10 02:07:23;;;;;;;7.70;4.18;;;;;;;10.80;78.30;101177.38;4155394;28;20099;-62
2022/11/10 02:09:45;;;;;;;9.45;3.35;;;;;;;10.79;78.00;101179.09;4147398;28;20448;-62
2022/11/10 02:12:06;;;;;;;9.77;3.28;;;;;;;10.78;77.55;101176.47;4145708;28;20045;-61
2022/11/10 02:14:30;;;;;;;6.22;3.15;;;;;;;10.78;77.65;101182.53;4144954;28;20097;-61
2022/11/10 02:16:51;;;;;;;8.70;2.90;;;;;;;10.75;78.08;101179.88;4146328;28;20053;-61
2022/11/10 02:19:15;;;;;;;7.43;3.75;;;;;;;10.79;77.98;101180.81;4142599;28;20124;-61
2022/11/10 02:21:38;;;;;;;10.15;4.28;;;;;;;10.72;78.31;101173.69;4147907;28;20091;-61
2022/11/10 02:24:00;;;;;;;6.88;3.22;;;;;;;10.69;78.05;101179.72;4142155;28;20042;-61
2022/11/10 02:26:24;;;;;;;10.30;3.80;;;;;;;10.68;77.59;101177.09;4158284;28;20059;-62
2022/11/10 02:28:45;;;;;;;8.93;3.13;;;;;;;10.67;78.29;101183.13;4153800;28;20042;-61
2022/11/10 02:31:08;;;;;;;6.90;3.47;;;;;;;10.64;78.16;101189.09;4158518;28;20044;-62
2022/11/10 02:33:30;;;;;;;9.75;4.38;;;;;;;10.62;78.19;101193.41;4165761;28;20084;-61
2022/11/10 02:35:51;;;;;;;10.93;5.32;;;;;;;10.60;78.15;101200.28;4140558;28;20052;-61
2022/11/10 02:38:14;;;;;;;11.40;5.68;;;;;;;10.60;78.50;101200.28;4154119;28;20087;-61
2022/11/10 02:40:36;;;;;;;12.10;4.63;;;;;;;10.56;78.19;101208.84;4146020;28;20034;-62
2022/11/10 02:42:57;;;;;;;10.35;5.00;;;;;;;10.48;78.64;101204.31;4132738;28;20054;-61
2022/11/10 02:45:19;;;;;;;10.15;5.57;;;;;;;10.46;77.99;101207.72;4153104;28;20112;-62
2022/11/10 02:47:43;;;;;;;15.02;6.35;;;;;;;10.43;78.73;101203.31;4154618;28;20451;-61
2022/11/10 02:50:04;;;;;;;14.98;6.57;;;;;;;10.42;78.24;101211.06;4146179;28;20048;-61
2022/11/10 02:52:26;;;;;;;15.95;7.03;;;;;;;10.40;78.97;101208.44;4157139;28;20514;-61
2022/11/10 02:54:48;;;;;;;15.38;6.82;;;;;;;10.42;78.26;101209.34;4153510;28;20115;-62
2022/11/10 02:57:10;;;;;;;15.57;6.18;;;;;;;10.46;78.45;101210.31;4153553;28;20064;-61
2022/11/10 02:59:31;;;;;;;11.07;5.13;;;;;;;10.47;78.46;101215.56;4153181;28;20438;-62
2022/11/10 03:01:53;;;;;;;17.40;6.38;;;;;;;10.51;78.98;101220.84;4157676;28;20439;-61
2022/11/10 03:04:14;;;;;;;13.32;5.75;;;;;;;10.50;78.63;101219.06;4144997;28;20430;-62
2022/11/10 03:06:36;;;;;;;14.25;6.55;;;;;;;10.50;78.96;101224.25;4155600;28;20060;-62
2022/11/10 03:08:58;;;;;;;13.63;5.32;;;;;;;10.46;78.68;101224.19;4149779;28;20042;-61
2022/11/10 03:11:20;;;;;;;10.63;5.15;;;;;;;10.43;78.30;101221.50;4154726;28;20068;-61
2022/11/10 03:13:42;;;;;;;13.55;5.00;;;;;;;10.41;78.33;101218.00;4153456;28;20169;-61
2022/11/10 03:16:21;;;;;;;12.43;4.60;;;;;;;10.36;78.66;101223.91;4144466;28;20053;-61
2022/11/10 03:18:43;;;;;;;12.77;4.50;;;;;;;10.38;78.08;101228.31;4145652;28;20457;-61
2022/11/10 03:21:05;;;;;;;7.32;3.35;;;;;;;10.33;77.43;101237.66;4142749;28;20042;-61
2022/11/10 03:23:27;;;;;;;6.28;3.40;;;;;;;10.27;77.53;101237.50;4147531;28;20137;-61
2022/11/10 03:25:48;;;;;;;8.43;2.67;;;;;;;10.20;77.53;101235.56;4143044;28;20038;-62
2022/11/10 03:28:12;;;;;;;7.95;2.97;;;;;;;10.17;77.96;101230.28;4153735;28;20041;-62
2022/11/10 03:30:33;;;;;;;8.20;2.22;;;;;;;10.13;78.12;101230.19;4142199;28;20057;-61
2022/11/10 03:32:55;;;;;;;8.93;2.53;;;;;;;10.12;78.13;101254.41;4147927;28;20042;-61
2022/11/10 03:35:17;;;;;;;7.32;2.83;;;;;;;10.11;78.31;101257.84;4158557;28;20029;-61
2022/11/10 03:37:40;;;;;;;7.40;2.60;;;;;;;10.08;77.75;101260.34;4158264;28;20501;-61
2022/11/10 03:40:01;;;;;;;8.65;2.80;;;;;;;10.04;78.45;101266.28;4149258;28;20065;-61
2022/11/10 03:42:23;;;;;;;7.43;2.90;;;;;;;10.05;78.39;101267.19;4155827;28;20347;-62
2022/11/10 03:44:46;;;;;;;3.97;2.25;;;;;;;9.99;78.03;101267.88;4146544;28;20034;-62
2022/11/10 03:47:07;;;;;;;6.00;2.58;;;;;;;10.00;78.06;101273.94;4155940;28;20133;-62
2022/11/10 03:49:29;;;;;;;6.25;2.50;;;;;;;9.95;78.16;101272.09;4150340;28;20058;-61
2022/11/10 03:51:51;;;;;;;7.05;2.70;;;;;;;9.94;77.62;101285.03;4139409;28;20034;-61
2022/11/10 03:54:12;;;;;;;6.10;2.83;;;;;;;9.92;77.55;101286.72;4157662;28;20053;-62
2022/11/10 03:56:34;;;;;;;6.78;2.40;;;;;;;9.89;78.04;101286.63;4163933;28;20072;-62
2022/11/10 03:58:55;;;;;;;8.45;3.08;;;;;;;9.89;77.60;101289.22;4150151;28;20057;-62
2022/11/10 04:01:18;;;;;;;8.02;2.97;;;;;;;9.89;77.99;101292.69;4149851;28;20118;-62
2022/11/10 04:03:40;;;;;;;5.72;2.53;;;;;;;9.88;78.08;101305.63;4151172;28;20044;-62
2022/11/10 04:16:35;;;;;;;9.93;3.47;;;;;;;9.82;78.03;101319.31;4154724;28;20036;-62
2022/11/10 04:18:56;;;;;;;6.40;3.22;;;;;;;9.81;78.05;101332.25;4146889;28;20046;-62
2022/11/10 04:21:18;;;;;;;8.15;3.30;;;;;;;9.79;78.15;101324.41;4153009;28;20444;-62
2022/11/10 04:23:39;;;;;;;4.47;2.47;;;;;;;9.76;78.61;101330.38;4150527;28;20037;-62
2022/11/10 04:28:45;;;;;;;7.78;3.38;;;;;;;9.79;78.12;101338.25;4150427;28;20054;-61
2022/11/10 04:31:07;;;;;;;7.15;3.00;;;;;;;9.76;78.20;101338.16;4146129;28;20124;-62
2022/11/10 04:33:30;;;;;;;6.15;2.50;;;;;;;9.77;78.55;101350.31;4158544;28;20507;-62
2022/11/10 04:35:51;;;;;;;9.55;3.40;;;;;;;9.75;78.35;101352.00;4136575;28;20073;-62
2022/11/10 04:38:13;;;;;;;8.88;3.70;;;;;;;9.72;78.20;101349.28;4137731;28;20416;-62
2022/11/10 04:40:34;;;;;;;6.18;3.22;;;;;;;9.71;78.42;101350.13;4140481;28;20034;-62
2022/11/10 04:42:59;;;;;;;7.60;2.70;;;;;;;9.71;78.40;101350.13;4148795;28;20416;-61
2022/11/10 04:45:21;;;;;;;7.75;2.65;;;;;;;9.71;78.72;101355.34;4148431;28;20034;-62
2022/11/10 04:47:43;;;;;;;10.13;3.40;;;;;;;9.71;78.64;101350.13;4150480;28;20459;-62
2022/11/10 04:50:06;;;;;;;9.00;3.17;;;;;;;9.73;78.70;101360.56;4157377;28;20057;-62
2022/11/10 04:52:28;;;;;;;7.10;3.10;;;;;;;9.74;78.72;101355.44;4160985;28;20049;-62
2022/11/10 04:54:50;;;;;;;7.30;2.60;;;;;;;9.72;78.16;101362.25;4143777;28;20040;-62
2022/11/10 04:57:11;;;;;;;6.95;3.08;;;;;;;9.72;78.42;101371.78;4150855;28;20050;-61
2022/11/10 04:59:33;;;;;;;9.57;3.38;;;;;;;9.75;78.37;101372.78;4149488;28;20038;-62
2022/11/10 05:01:54;;;;;;;7.38;3.42;;;;;;;9.76;78.69;101365.84;4157295;28;20033;-61
2022/11/10 05:04:16;;;;;;;12.32;3.58;;;;;;;9.78;78.16;101365.09;4158034;28;20033;-62
2022/11/10 05:06:39;;;;;;;8.13;3.17;;;;;;;9.79;78.62;101360.75;4156154;28;20064;-61
2022/11/10 05:09:00;;;;;;;9.75;3.15;;;;;;;9.78;78.74;101358.97;4149582;28;20069;-62
2022/11/10 05:11:21;;;;;;;7.50;2.97;;;;;;;9.81;78.35;101356.47;4161549;28;20029;-62
2022/11/10 05:13:43;;;;;;;8.45;3.25;;;;;;;9.81;78.35;101355.63;4152658;28;20526;-62
2022/11/10 05:16:05;;;;;;;9.23;3.10;;;;;;;9.84;78.58;101374.78;4150901;28;20041;-62
2022/11/10 05:18:26;;;;;;;7.25;3.10;;;;;;;9.82;78.94;101367.78;4151011;28;20049;-62
2022/11/10 05:20:48;;;;;;;8.18;3.38;;;;;;;9.87;78.94;101376.56;4145442;28;20052;-62
2022/11/10 05:25:50;;;;;;;9.55;3.33;;;;;;;9.79;78.98;101373.75;4141839;28;20045;-62
2022/11/10 05:28:12;;;;;;;8.65;3.47;;;;;;;9.81;79.18;101385.03;4158163;28;20050;-62
2022/11/10 05:30:36;;;;;;;12.13;3.55;;;;;;;9.81;78.76;101392.84;4151803;28;20042;-62
2022/11/10 05:32:58;;;;;;;10.00;3.25;;;;;;;9.83;78.88;101396.38;4144468;28;20057;-61
2022/11/10 05:35:21;;;;;;;6.18;2.88;;;;;;;9.82;78.37;101401.53;4148091;28;20124;-62
2022/11/10 05:37:42;;;;;;;7.03;3.00;;;;;;;9.82;78.82;101417.97;4152602;28;20043;-62
2022/11/10 05:40:06;;;;;;;7.63;3.35;;;;;;;9.82;78.56;101420.59;4138486;28;20073;-62
2022/11/10 05:42:28;;;;;;;9.82;3.50;;;;;;;9.83;78.53;101417.16;4153024;28;20041;-62
2022/11/10 05:44:49;;;;;;;8.07;3.40;;;;;;;9.82;78.60;101419.72;4139022;28;20093;-61
2022/11/10 05:47:11;;;;;;;6.88;3.25;;;;;;;9.84;78.57;101428.41;4145963;28;21423;-61
2022/11/10 05:49:32;;;;;;;11.27;3.30;;;;;;;9.81;78.81;101438.72;4148215;28;20037;-61
2022/11/10 05:51:53;;;;;;;7.60;3.78;;;;;;;9.81;78.25;101449.97;4142204;28;20124;-61
2022/11/10 05:54:15;;;;;;;9.18;3.75;;;;;;;9.79;78.32;101456.84;4158668;28;20040;-61
2022/11/10 05:56:37;;;;;;;10.27;3.50;;;;;;;9.77;78.67;101459.41;4150403;28;20510;-61
2022/11/10 05:58:59;;;;;;;6.53;3.00;;;;;;;9.75;78.86;101460.16;4141852;28;20042;-61
2022/11/10 06:01:20;;;;;;;9.18;3.35;;;;;;;9.75;78.42;101470.56;4149289;28;20045;-61
2022/11/10 06:03:42;;;;;;;12.07;3.80;;;;;;;9.73;78.27;101470.50;4147241;28;20070;-61
2022/11/10 06:06:04;;;;;;;11.68;3.40;;;;;;;9.74;78.70;101479.19;4154056;28;20045;-61
2022/11/10 06:08:25;;;;;;;8.40;2.88;;;;;;;9.71;78.56;101477.38;4165497;28;20438;-61
2022/11/10 06:10:46;;;;;;;6.20;2.95;;;;;;;9.71;78.84;101494.63;4149691;28;20136;-61
2022/11/10 06:13:10;;;;;;;9.25;3.28;;;;;;;9.66;79.02;101501.41;4146362;28;20536;-61
2022/11/10 06:15:32;;;;;;;10.07;4.13;;;;;;;9.60;78.41;101507.25;4144752;28;20050;-61
2022/11/10 06:17:53;;;;;;;7.38;2.90;;;;;;;9.60;78.69;101508.13;4139537;28;20037;-61
2022/11/10 06:20:17;;;;;;;8.85;3.78;;;;;;;9.59;78.93;101510.69;4165220;28;20044;-61
2022/11/10 06:22:38;;;;;;;8.35;3.60;;;;;;;9.59;78.75;101509.00;4160123;28;20034;-62
2022/11/10 06:24:59;;;;;;;10.45;3.72;;;;;;;9.60;78.84;101495.16;4144424;28;20575;-62
2022/11/10 06:27:21;;;;;;;8.50;4.07;;;;;;;9.57;79.10;101500.25;4146427;28;20120;-62
2022/11/10 06:29:44;;;;;;;10.52;3.75;;;;;;;9.57;78.53;101505.44;4149359;28;20046;-62
2022/11/10 06:32:05;;;;;;;8.95;4.10;;;;;;;9.55;78.73;101514.00;4148795;28;20045;-62
2022/11/10 06:34:27;;;;;;;9.13;4.25;;;;;;;9.56;78.03;101526.16;4146631;28;20510;-62
2022/11/10 06:36:49;;;;;;;9.90;4.28;;;;;;;9.54;78.69;101533.88;4148417;28;20364;-62
2022/11/10 06:39:10;;;;;;;11.80;4.25;;;;;;;9.53;78.56;101549.41;4159798;28;20116;-62
2022/11/10 06:41:32;;;;;;;9.00;3.55;;;;;;;9.51;79.08;101549.34;4147970;28;20044;-62
2022/11/10 06:43:54;;;;;;;8.20;3.80;;;;;;;9.50;78.59;101557.09;4148675;28;20034;-62
2022/11/10 06:46:17;;;;;;;13.00;4.50;;;;;;;9.46;78.92;101563.00;4155253;28;20072;-62
2022/11/10 06:48:39;;;;;;;12.15;5.35;;;;;;;9.44;79.19;101569.00;4156594;28;20052;-62
2022/11/10 06:51:00;;;;;;;8.60;4.47;;;;;;;9.45;79.03;101564.72;4154089;28;20033;-62
2022/11/10 06:53:22;;;;;;;13.93;5.28;;;;;;;9.47;78.75;101567.38;4147768;28;20033;-62
2022/11/10 06:55:47;;;;;;;10.82;4.57;;;;;;;9.43;79.14;101572.44;4146484;28;20045;-61
2022/11/10 06:58:08;;;;;;;9.50;3.88;;;;;;;9.43;78.81;101577.63;4154241;28;20049;-61
2022/11/10 07:00:30;;;;;;;8.35;4.55;;;;;;;9.44;79.29;101588.91;4160477;28;20051;-62
2022/11/10 07:03:00;;;;;;;9.18;4.20;;;;;;;9.48;78.98;101590.78;4142422;28;20120;-62
2022/11/10 07:05:21;;;;;;;12.02;4.05;;;;;;;9.47;79.02;101598.50;4157289;28;20046;-62
2022/11/10 07:07:43;;;;;;;7.38;3.92;;;;;;;9.50;79.08;101594.31;4154984;28;20045;-62
2022/11/10 07:10:06;;;;;;;10.57;4.03;;;;;;;9.50;78.88;101601.22;4151032;28;20069;-62
2022/11/10 07:12:28;;;;;;;9.52;4.32;;;;;;;9.46;78.88;101605.41;4154592;28;20046;-62
2022/11/10 07:14:49;;;;;;;8.25;4.72;;;;;;;9.46;78.91;101612.31;4143969;28;20107;-62
2022/11/10 07:17:10;;;;;;;9.63;4.65;;;;;;;9.47;78.64;101620.16;4149148;28;20526;-62
2022/11/10 07:19:33;;;;;;;9.93;4.20;;;;;;;9.47;79.27;101625.34;4148536;28;20112;-62
2022/11/10 07:21:54;;;;;;;12.95;5.00;;;;;;;9.47;78.93;101621.88;4140578;28;20096;-62
2022/11/10 07:24:16;;;;;;;13.02;4.80;;;;;;;9.48;79.05;101621.06;4147109;28;20081;-62
2022/11/10 07:26:37;;;;;;;9.32;3.78;;;;;;;9.49;79.25;101615.91;4147861;28;20050;-61
2022/11/10 07:28:59;;;;;;;10.73;4.35;;;;;;;9.52;79.03;101623.81;4148098;28;20518;-61
2022/11/10 07:31:21;;;;;;;8.00;4.75;;;;;;;9.53;79.10;101629.88;4145195;28;20033;-62
2022/11/10 07:33:42;;;;;;;8.77;4.93;;;;;;;9.54;79.40;101629.06;4147597;28;20092;-61
2022/11/10 07:36:06;;;;;;;8.05;4.43;;;;;;;9.56;79.45;101630.91;4146941;28;20060;-62
2022/11/10 07:38:28;;;;;;;11.25;5.70;;;;;;;9.58;78.94;101628.34;4147284;28;20100;-62
2022/11/10 07:40:52;;;;;;;11.02;4.55;;;;;;;9.62;79.34;101640.59;4146787;28;20504;-61
2022/11/10 07:43:13;;;;;;;7.68;4.50;;;;;;;9.66;79.30;101636.41;4145416;28;20129;-62
2022/11/10 07:45:35;;;;;;;9.30;4.95;;;;;;;9.67;78.87;101649.47;4147869;28;20674;-62
2022/11/10 07:47:59;;;;;;;12.70;5.03;;;;;;;9.64;79.51;101654.53;4148277;28;20411;-60
2022/11/10 07:50:20;;;;;;;8.20;4.20;;;;;;;9.63;79.12;101652.75;4131599;28;20034;-60
2022/11/10 07:52:43;;;;;;;10.70;5.18;;;;;;;9.57;79.88;101658.59;4131357;28;20511;-60
2022/11/10 07:55:06;;;;;;;8.98;3.90;;;;;;;9.61;79.66;101657.91;4145818;28;20038;-60
2022/11/10 07:57:28;;;;;;;10.10;3.95;;;;;;;9.69;80.16;101668.56;4147000;28;20496;-59
2022/11/10 07:59:49;;;;;;;9.88;4.70;;;;;;;9.78;79.31;101674.13;4147641;28;20052;-60
2022/11/10 08:02:15;;;;;;;7.70;4.03;;;;;;;9.83;79.28;101675.97;4147616;28;20099;-60
2022/11/10 08:04:36;;;;;;;12.20;4.72;;;;;;;9.85;79.78;101676.94;4146140;28;20050;-60
2022/11/10 08:06:58;;;;;;;14.52;5.75;;;;;;;9.87;79.85;101688.25;4141574;28;20034;-60
2022/11/10 08:09:21;;;;;;;10.88;5.10;;;;;;;9.84;79.96;101688.13;4134361;28;20057;-61
2022/11/10 08:11:42;;;;;;;9.15;4.43;;;;;;;9.86;79.62;101691.69;4131408;28;20054;-60
2022/11/10 08:14:04;;;;;;;14.63;4.68;;;;;;;9.90;79.53;101693.56;4134447;28;20038;-62
2022/11/10 08:16:25;;;;;;;10.05;4.50;;;;;;;9.94;79.54;101695.44;4145417;28;20077;-65
2022/11/10 08:18:47;;;;;;;11.15;4.88;;;;;;;9.99;80.20;101699.09;4144951;28;20108;-61
2022/11/10 08:21:09;;;;;;;7.75;4.07;;;;;;;9.96;80.27;101705.06;4144463;28;20534;-62
2022/11/10 08:23:31;;;;;;;10.02;4.38;;;;;;;10.02;79.38;101696.63;4149767;28;20040;-64
2022/11/10 08:25:54;;;;;;;11.60;5.28;;;;;;;10.13;79.17;101700.50;4148385;28;20137;-63
2022/11/10 08:28:18;;;;;;;12.95;4.70;;;;;;;10.18;79.07;101713.66;4149523;28;20077;-63
2022/11/10 08:30:41;;;;;;;11.02;4.68;;;;;;;10.11;79.66;101709.94;4150308;28;20074;-61
2022/11/10 08:33:04;;;;;;;10.48;4.60;;;;;;;10.04;79.35;101707.06;4150097;28;20125;-61
2022/11/10 08:35:27;;;;;;;12.27;4.35;;;;;;;10.02;80.04;101704.41;4140700;28;20422;-61
2022/11/10 08:37:49;;;;;;;11.75;4.45;;;;;;;10.02;79.75;101717.41;4140564;28;20579;-63
2022/11/10 08:40:11;;;;;;;10.02;4.18;;;;;;;10.08;80.16;101709.81;4146137;28;20550;-64
2022/11/10 08:42:34;;;;;;;12.55;4.28;;;;;;;10.14;79.90;101723.03;4146903;28;20034;-64
2022/11/10 08:44:55;;;;;;;12.05;4.05;;;;;;;10.22;79.97;101719.81;4147269;28;20037;-65
2022/11/10 08:47:17;;;;;;;10.30;3.60;;;;;;;10.34;79.59;101724.59;4144118;28;20074;-62
2022/11/10 08:49:38;;;;;;;14.48;4.22;;;;;;;10.44;78.91;101725.00;4143660;28;20096;-62
2022/11/10 08:52:00;;;;;;;13.40;4.32;;;;;;;10.50;79.12;101731.25;4161385;28;20277;-62
2022/11/10 08:54:21;;;;;;;9.82;4.03;;;;;;;10.48;78.57;101732.09;4149987;28;20038;-63
2022/11/10 08:56:43;;;;;;;10.82;3.60;;;;;;;10.54;78.36;101734.03;4147102;28;20046;-63
2022/11/10 08:59:06;;;;;;;11.52;3.92;;;;;;;10.68;78.72;101731.88;4133863;28;20153;-63
2022/11/10 09:01:27;;;;;;;10.63;3.83;;;;;;;10.69;78.15;101733.66;4140067;28;20050;-63
2022/11/10 09:03:49;;;;;;;7.32;3.08;;;;;;;10.75;78.30;101736.47;4148220;28;20112;-63
2022/11/10 09:06:11;;;;;;;10.20;3.92;;;;;;;10.87;77.90;101742.94;4150252;28;20558;-63
2022/11/10 09:08:33;;;;;;;10.70;3.83;;;;;;;11.00;77.32;101745.09;4149926;28;20571;-63
2022/11/10 09:10:54;;;;;;;9.35;3.05;;;;;;;11.05;77.64;101743.50;4148444;28;20318;-63
2022/11/10 09:13:16;;;;;;;8.55;3.80;;;;;;;11.11;77.16;101748.03;4148238;28;20506;-63
2022/11/10 09:15:40;;;;;;;10.43;3.45;;;;;;;11.14;77.92;101746.44;4146979;28;20523;-63
2022/11/10 09:18:03;;;;;;;9.18;3.80;;;;;;;11.38;76.91;101761.06;4148913;28;20112;-63
2022/11/10 09:20:25;;;;;;;12.40;3.03;;;;;;;11.37;76.36;101763.63;4149976;28;20034;-63
2022/11/10 09:22:47;;;;;;;11.68;3.33;;;;;;;11.34;77.11;101773.09;4149680;28;20546;-63
2022/11/10 09:25:09;;;;;;;10.55;3.83;;;;;;;11.35;76.45;101780.06;4133448;28;20496;-63
2022/11/10 09:27:31;;;;;;;20.55;4.57;;;;;;;11.41;76.60;101784.59;4136049;28;20038;-63
2022/11/10 09:29:52;;;;;;;9.15;3.72;;;;;;;11.59;76.07;101783.41;4149643;28;20060;-63
2022/11/10 09:32:15;;;;;;;11.07;3.53;;;;;;;11.59;75.86;101786.03;4148038;28;20080;-63
2022/11/10 09:34:37;;;;;;;9.32;3.47;;;;;;;11.63;75.39;101783.56;4141169;28;20484;-63
2022/11/10 09:36:58;;;;;;;7.65;2.60;;;;;;;11.76;75.30;101794.38;4164467;28;20048;-63
2022/11/10 09:39:20;;;;;;;9.80;3.58;;;;;;;11.73;75.14;101789.94;4133552;28;20105;-63
2022/11/10 09:41:44;;;;;;;8.90;2.85;;;;;;;11.86;75.08;101789.47;4135722;28;20046;-63
2022/11/10 09:44:12;;;;;;;10.40;2.70;;;;;;;11.89;74.98;101799.13;4148733;28;20046;-63
2022/11/10 09:46:40;;;;;;;9.52;2.58;;;;;;;11.94;74.17;101799.28;4133388;28;20053;-63
2022/11/10 09:49:10;;;;;;;9.02;2.95;;;;;;;12.03;73.69;101802.16;4139305;28;20037;-63
2022/11/10 09:51:35;;;;;;;14.45;3.10;;;;;;;12.17;73.36;101795.63;4147788;28;20120;-63
2022/11/10 09:53:58;;;;;;;12.43;3.08;;;;;;;12.25;73.48;101792.38;4133951;28;20165;-63
2022/11/10 09:56:25;;;;;;;13.48;3.55;;;;;;;12.37;72.54;101800.56;4140171;28;20042;-63
2022/11/10 09:58:47;;;;;;;12.60;3.08;;;;;;;12.36;72.01;101793.56;4145990;28;20128;-63
2022/11/10 10:01:20;;;;;;;11.57;3.03;;;;;;;12.46;72.36;101794.72;4147806;28;20878;-62
2022/11/10 10:03:48;;;;;;;14.82;2.90;;;;;;;12.44;71.57;101798.97;4133298;28;20048;-63
2022/11/10 10:06:12;;;;;;;9.48;2.42;;;;;;;12.40;71.35;101793.69;4143714;28;20101;-63
2022/11/10 10:08:52;;;;;;;7.53;3.00;;;;;;;12.47;71.73;101799.97;4134958;28;20053;-63
2022/11/10 10:11:26;;;;;;;13.15;3.63;;;;;;;12.58;70.97;101790.69;4146215;28;20042;-63
2022/11/10 10:14:04;;;;;;;10.50;2.67;;;;;;;12.52;71.41;101789.66;4148703;28;20416;-63
2022/11/10 10:16:36;;;;;;;12.13;2.75;;;;;;;12.57;71.06;101798.47;4148882;28;20459;-63
2022/11/10 10:19:05;;;;;;;12.80;3.08;;;;;;;12.62;71.42;101796.03;4141259;28;20034;-63
2022/11/10 10:21:43;;;;;;;9.32;2.63;;;;;;;12.79;71.58;101799.06;4136860;28;20153;-63
2022/11/10 10:24:05;;;;;;;7.38;2.75;;;;;;;12.82;70.73;101800.06;4131475;28;20069;-63
2022/11/10 10:26:41;;;;;;;10.88;2.75;;;;;;;12.81;70.48;101798.28;4146661;28;20054;-63
2022/11/10 10:29:09;;;;;;;8.63;2.58;;;;;;;12.80;70.35;101801.72;4134369;28;20082;-62
2022/11/10 10:31:34;;;;;;;12.00;2.50;;;;;;;12.73;69.96;101795.47;4143233;28;20517;-63
2022/11/10 10:33:56;;;;;;;11.45;2.97;;;;;;;12.74;70.25;101801.56;4148275;28;20092;-63
2022/11/10 10:36:20;;;;;;;9.07;3.08;;;;;;;12.81;70.19;101795.66;4137577;28;20054;-63
2022/11/10 10:38:46;;;;;;;8.88;2.58;;;;;;;12.85;69.98;101800.13;4133738;28;20042;-63
2022/11/10 10:41:14;;;;;;;6.78;2.25;;;;;;;12.82;70.45;101799.16;4142779;28;20033;-63
2022/11/10 10:43:48;;;;;;;8.05;2.50;;;;;;;12.88;69.49;101794.13;4140208;28;20554;-63
2022/11/10 10:46:15;;;;;;;11.07;2.58;;;;;;;12.97;70.09;101796.06;4148521;28;20038;-63
2022/11/10 10:48:36;;;;;;;10.15;2.50;;;;;;;13.10;69.32;101803.38;4147397;28;20041;-63
2022/11/10 10:50:57;;;;;;;13.10;2.88;;;;;;;13.05;69.06;101797.13;4141936;28;20118;-63
2022/11/10 10:53:21;;;;;;;11.13;2.90;;;;;;;13.15;69.23;101791.31;4145110;28;20050;-64
2022/11/10 10:55:50;;;;;;;6.90;2.30;;;;;;;13.09;68.75;101789.41;4146806;28;20042;-63
2022/11/10 10:58:21;;;;;;;12.57;3.03;;;;;;;13.18;68.69;101799.22;4148114;28;20049;-63
2022/11/10 11:00:43;;;;;;;11.90;2.90;;;;;;;13.12;68.23;101799.06;4147164;28;20034;-63
2022/11/10 11:03:07;;;;;;;6.80;2.05;;;;;;;13.15;68.13;101793.03;4132538;28;20085;-63
2022/11/10 11:05:29;;;;;;;9.02;2.13;;;;;;;13.23;68.91;101784.56;4133104;28;20046;-63
2022/11/10 11:07:55;;;;;;;22.23;4.45;;;;;;;13.27;68.00;101798.56;4136646;28;20038;-63
2022/11/10 11:10:22;;;;;;;9.82;2.50;;;;;;;13.42;67.41;101793.75;4148157;28;20129;-62
2022/11/10 11:12:45;;;;;;;8.23;3.55;;;;;;;13.44;67.65;101793.78;4148116;28;20100;-63
2022/11/10 11:15:21;;;;;;;9.93;2.42;;;;;;;13.49;67.33;101783.44;4146287;28;20045;-63
2022/11/10 11:17:53;;;;;;;9.27;2.15;;;;;;;13.48;66.95;101779.94;4154827;28;20180;-63
2022/11/10 11:20:15;;;;;;;7.47;2.35;;;;;;;13.64;67.56;101772.44;4143419;28;20033;-63
2022/11/10 11:22:51;;;;;;;10.82;3.00;;;;;;;13.85;67.28;101780.78;4142717;28;20092;-63